Time;durP1;ratioP1;P1;durP2;ratioP2;P2;SDS_P1;SDS_P2;PMS_P1;PMS_P2;Temp;Humidity;BMP_temperature;BMP_pressure;BME280_temperature;BME280_humidity;BME280_pressure;Samples;Min_cycle;Max_cycle;Signal;HPM_P1;HPM_P2
2022/07/18 00:02:09;;;;;;;7.07;5.30;;;16.40;99.90;;;;;;5041240;28;20037;-52
2022/07/18 00:04:35;;;;;;;7.93;5.97;;;16.40;99.90;;;;;;5043001;28;20442;-49
2022/07/18 00:07:00;;;;;;;13.20;6.40;;;16.40;99.90;;;;;;5024798;28;20037;-48
2022/07/18 00:09:26;;;;;;;7.30;5.60;;;16.40;99.90;;;;;;5043827;28;20041;-48
2022/07/18 00:11:52;;;;;;;8.88;6.60;;;16.20;99.90;;;;;;5043030;28;20124;-51
2022/07/18 00:14:19;;;;;;;6.75;5.68;;;16.30;99.90;;;;;;5039316;28;20530;-50
2022/07/18 00:16:45;;;;;;;6.80;6.03;;;16.30;99.90;;;;;;5042996;28;20138;-51
2022/07/18 00:19:10;;;;;;;7.80;5.80;;;16.20;99.90;;;;;;5043186;28;20481;-50
2022/07/18 00:21:36;;;;;;;7.72;6.28;;;16.20;99.90;;;;;;5039027;28;20041;-49
2022/07/18 00:24:02;;;;;;;8.35;6.13;;;16.20;99.90;;;;;;5026976;28;20088;-49
2022/07/18 00:26:27;;;;;;;7.32;6.18;;;16.10;99.90;;;;;;5042545;28;20044;-50
2022/07/18 00:28:53;;;;;;;10.68;6.25;;;16.20;99.90;;;;;;5036781;28;20036;-48
2022/07/18 00:31:18;;;;;;;9.35;6.35;;;16.10;99.90;;;;;;5042052;28;20044;-47
2022/07/18 00:33:44;;;;;;;7.93;6.60;;;16.10;99.90;;;;;;5042325;28;20033;-51
2022/07/18 00:36:10;;;;;;;7.65;6.47;;;16.00;99.90;;;;;;5045051;28;20828;-51
2022/07/18 00:38:36;;;;;;;7.57;6.38;;;16.00;99.90;;;;;;5041011;28;20045;-52
2022/07/18 00:41:02;;;;;;;9.35;6.43;;;16.00;99.90;;;;;;5026266;28;20052;-52
2022/07/18 00:43:28;;;;;;;9.30;6.70;;;16.00;99.90;;;;;;5042395;28;20044;-52
2022/07/18 00:45:54;;;;;;;8.18;7.18;;;15.90;99.90;;;;;;5042333;28;20036;-51
2022/07/18 00:48:20;;;;;;;9.57;7.75;;;15.90;99.90;;;;;;5023594;28;20276;-51
2022/07/18 00:50:46;;;;;;;9.90;7.55;;;15.90;99.90;;;;;;5043001;28;20087;-49
2022/07/18 00:53:12;;;;;;;10.43;7.40;;;15.90;99.90;;;;;;5040065;28;20111;-51
2022/07/18 00:55:44;;;;;;;8.50;7.18;;;15.80;99.90;;;;;;5039569;28;20116;-50
2022/07/18 00:58:10;;;;;;;11.07;7.97;;;15.80;99.90;;;;;;5039774;28;20455;-53
2022/07/18 01:03:21;;;;;;;10.52;7.78;;;15.80;99.90;;;;;;5038186;28;20119;-51
2022/07/18 01:05:47;;;;;;;10.82;7.65;;;15.70;99.90;;;;;;5036512;28;20037;-51
2022/07/18 01:08:13;;;;;;;8.80;7.53;;;15.70;99.90;;;;;;5039405;28;20087;-51
2022/07/18 01:10:38;;;;;;;10.77;8.48;;;15.70;99.90;;;;;;5039523;28;20136;-51
2022/07/18 01:13:04;;;;;;;10.15;7.90;;;15.60;99.90;;;;;;5039141;28;20080;-52
2022/07/18 01:15:30;;;;;;;10.27;8.77;;;15.60;99.90;;;;;;5040223;28;20045;-52
2022/07/18 01:17:55;;;;;;;9.73;8.27;;;15.60;99.90;;;;;;5043686;28;20052;-48
2022/07/18 01:20:21;;;;;;;9.77;8.73;;;15.50;99.90;;;;;;5039592;28;20029;-50
2022/07/18 01:22:46;;;;;;;13.52;8.60;;;15.50;99.90;;;;;;5040968;28;20272;-51
2022/07/18 01:25:14;;;;;;;10.15;8.85;;;15.40;99.90;;;;;;5036938;28;20052;-52
2022/07/18 01:27:40;;;;;;;11.93;8.70;;;15.40;99.90;;;;;;5036448;28;20098;-51
2022/07/18 01:30:06;;;;;;;9.52;7.85;;;15.40;99.90;;;;;;5037436;28;20048;-51
2022/07/18 01:32:32;;;;;;;10.80;8.55;;;15.40;99.90;;;;;;5037469;28;20041;-49
2022/07/18 01:34:58;;;;;;;9.93;8.43;;;15.40;99.90;;;;;;5024836;28;20061;-50
2022/07/18 01:37:23;;;;;;;10.55;8.88;;;15.30;99.90;;;;;;5040548;28;20352;-50
2022/07/18 01:39:49;;;;;;;9.57;8.25;;;15.30;99.90;;;;;;5040864;28;20044;-50
2022/07/18 01:42:15;;;;;;;10.43;9.32;;;15.30;99.90;;;;;;5038508;28;20486;-50
2022/07/18 01:44:41;;;;;;;10.65;8.25;;;15.30;99.90;;;;;;5040658;28;20127;-49
2022/07/18 01:47:09;;;;;;;11.13;8.57;;;15.20;99.90;;;;;;5023958;28;20115;-49
2022/07/18 01:49:36;;;;;;;13.20;9.70;;;15.30;99.90;;;;;;5042046;28;20084;-48
2022/07/18 01:52:02;;;;;;;10.30;8.65;;;15.20;99.90;;;;;;5038318;28;20057;-47
2022/07/18 01:54:30;;;;;;;11.30;9.23;;;15.20;99.90;;;;;;5041535;28;20118;-49
2022/07/18 01:56:58;;;;;;;;;;;15.10;99.90;;;;;;5037486;28;20692;-50
2022/07/18 01:59:24;;;;;;;11.00;9.13;;;15.20;99.90;;;;;;5040861;28;20015;-51
2022/07/18 02:01:50;;;;;;;10.32;8.93;;;15.20;99.90;;;;;;5041067;28;20040;-47
2022/07/18 02:04:15;;;;;;;11.77;9.48;;;15.20;99.90;;;;;;5040084;28;20033;-46
2022/07/18 02:06:41;;;;;;;10.68;8.60;;;15.10;99.90;;;;;;5042962;28;20037;-47
2022/07/18 02:09:08;;;;;;;10.52;9.40;;;15.10;99.90;;;;;;5041807;28;20052;-50
2022/07/18 02:11:33;;;;;;;10.23;8.88;;;15.10;99.90;;;;;;5039763;28;20033;-49
2022/07/18 02:13:59;;;;;;;10.40;9.32;;;15.10;99.90;;;;;;5040215;28;20043;-50
2022/07/18 02:16:25;;;;;;;10.25;8.75;;;15.00;99.90;;;;;;5041785;28;20043;-48
2022/07/18 02:18:51;;;;;;;10.02;8.70;;;15.00;99.90;;;;;;5043255;28;20113;-48
2022/07/18 02:21:16;;;;;;;13.88;9.65;;;15.00;99.90;;;;;;5038748;28;20091;-51
2022/07/18 02:23:43;;;;;;;10.90;9.60;;;15.00;99.90;;;;;;5025257;28;20114;-48
2022/07/18 02:26:09;;;;;;;10.38;8.73;;;15.00;99.90;;;;;;5040353;28;20091;-49
2022/07/18 02:28:36;;;;;;;10.90;8.65;;;15.00;99.90;;;;;;5035910;28;20077;-49
2022/07/18 02:31:02;;;;;;;10.85;9.13;;;15.00;99.90;;;;;;5041324;28;20049;-48
2022/07/18 02:33:28;;;;;;;10.75;7.97;;;14.90;99.90;;;;;;5042158;28;20041;-48
2022/07/18 02:35:54;;;;;;;11.35;8.85;;;14.90;99.90;;;;;;5043570;28;20051;-48
2022/07/18 02:38:19;;;;;;;11.27;9.10;;;14.90;99.90;;;;;;5044691;28;20033;-48
2022/07/18 02:40:45;;;;;;;13.13;8.48;;;14.90;99.90;;;;;;5045563;28;20053;-52
2022/07/18 02:43:11;;;;;;;10.50;8.50;;;14.80;99.90;;;;;;5042915;28;20526;-53
2022/07/18 02:45:36;;;;;;;10.65;8.88;;;14.80;99.90;;;;;;5043575;28;20083;-47
2022/07/18 02:48:02;;;;;;;11.60;8.82;;;14.70;99.90;;;;;;5044565;28;20427;-50
2022/07/18 02:50:28;;;;;;;9.13;8.23;;;14.70;99.90;;;;;;5023798;28;20037;-50
2022/07/18 02:52:54;;;;;;;10.15;8.57;;;14.70;99.90;;;;;;5047083;28;20051;-51
2022/07/18 02:55:20;;;;;;;11.35;8.63;;;14.70;99.90;;;;;;5024522;28;20140;-53
2022/07/18 02:57:46;;;;;;;9.63;8.32;;;14.60;99.90;;;;;;5039574;28;20385;-52
2022/07/18 03:00:14;;;;;;;10.60;7.72;;;14.60;99.90;;;;;;5023253;28;20395;-50
2022/07/18 03:02:40;;;;;;;10.02;8.38;;;14.60;99.90;;;;;;5044681;28;20051;-47
2022/07/18 03:05:06;;;;;;;12.23;8.40;;;14.60;99.90;;;;;;5045328;28;20045;-51
2022/07/18 03:07:32;;;;;;;12.25;8.80;;;14.60;99.90;;;;;;5043874;28;20037;-48
2022/07/18 03:09:58;;;;;;;14.45;8.82;;;14.60;99.90;;;;;;5044121;28;20033;-50
2022/07/18 03:12:24;;;;;;;10.77;8.85;;;14.50;99.90;;;;;;5044616;28;20043;-49
2022/07/18 03:14:50;;;;;;;13.60;9.07;;;14.50;99.90;;;;;;5044754;28;20095;-50
2022/07/18 03:17:16;;;;;;;11.05;9.05;;;14.50;99.90;;;;;;5044864;28;20122;-51
2022/07/18 03:19:42;;;;;;;12.90;9.00;;;14.50;99.90;;;;;;5044759;28;20128;-52
2022/07/18 03:22:08;;;;;;;12.60;9.10;;;14.40;99.90;;;;;;5045295;28;20033;-49
2022/07/18 03:24:34;;;;;;;10.70;8.77;;;14.40;99.90;;;;;;5040409;28;20045;-48
2022/07/18 03:27:00;;;;;;;11.45;8.52;;;14.40;99.90;;;;;;5039094;28;20124;-47
2022/07/18 03:29:25;;;;;;;13.30;9.90;;;14.40;99.90;;;;;;5041173;28;20391;-49
2022/07/18 03:31:51;;;;;;;11.23;9.07;;;14.40;99.90;;;;;;5042397;28;20041;-49
2022/07/18 03:34:17;;;;;;;10.55;8.85;;;14.40;99.90;;;;;;5045277;28;20041;-50
2022/07/18 03:36:42;;;;;;;9.77;8.52;;;14.40;99.90;;;;;;5043511;28;20045;-52
2022/07/18 03:39:09;;;;;;;12.10;8.40;;;14.40;99.90;;;;;;5042729;28;20167;-50
2022/07/18 03:41:36;;;;;;;10.55;9.02;;;14.40;99.90;;;;;;5039055;28;20045;-48
2022/07/18 03:44:03;;;;;;;9.37;8.13;;;14.40;99.90;;;;;;5045057;28;20052;-50
2022/07/18 03:46:29;;;;;;;9.82;8.43;;;14.50;99.90;;;;;;5045246;28;20259;-54
2022/07/18 03:48:54;;;;;;;12.02;8.25;;;14.50;99.90;;;;;;5024730;28;20124;-49
2022/07/18 03:51:20;;;;;;;14.55;8.88;;;14.50;99.90;;;;;;5040521;28;20486;-51
2022/07/18 03:53:46;;;;;;;10.85;8.75;;;14.60;99.90;;;;;;5045354;28;20041;-51
2022/07/18 03:56:11;;;;;;;11.13;9.07;;;14.60;99.90;;;;;;5042174;28;20099;-48
2022/07/18 03:58:37;;;;;;;13.00;9.15;;;14.70;99.90;;;;;;5009712;28;20068;-50
2022/07/18 04:01:03;;;;;;;11.50;9.38;;;14.60;99.90;;;;;;5041042;28;20071;-51
2022/07/18 04:03:29;;;;;;;11.27;10.02;;;14.70;99.90;;;;;;5025727;28;20048;-51
2022/07/18 04:05:55;;;;;;;13.68;9.63;;;14.80;99.90;;;;;;5042298;28;20060;-51
2022/07/18 04:08:21;;;;;;;12.25;9.02;;;14.80;99.90;;;;;;5042921;28;20056;-50
2022/07/18 04:10:46;;;;;;;12.15;9.23;;;14.80;99.90;;;;;;5041013;28;20048;-49
2022/07/18 04:13:12;;;;;;;16.00;9.07;;;14.80;99.90;;;;;;5041857;28;20033;-48
2022/07/18 04:15:38;;;;;;;12.75;9.63;;;14.80;99.90;;;;;;5040430;28;20037;-50
2022/07/18 04:18:05;;;;;;;13.23;10.15;;;14.90;99.90;;;;;;5024433;28;20041;-48
2022/07/18 04:20:31;;;;;;;11.33;9.23;;;14.90;99.90;;;;;;5039171;28;20040;-49
2022/07/18 04:22:59;;;;;;;13.95;10.05;;;14.90;99.90;;;;;;5043573;28;20318;-47
2022/07/18 04:25:28;;;;;;;12.30;9.25;;;15.00;99.90;;;;;;5044027;28;20124;-50
2022/07/18 04:27:54;;;;;;;12.43;8.80;;;15.00;99.90;;;;;;5038596;28;20052;-54
2022/07/18 04:30:22;;;;;;;12.35;9.15;;;15.10;99.90;;;;;;5039638;28;20072;-50
2022/07/18 04:32:48;;;;;;;11.75;9.55;;;15.10;99.90;;;;;;5043229;28;20047;-50
2022/07/18 04:35:14;;;;;;;12.10;8.65;;;15.40;99.90;;;;;;5043458;28;20041;-50
2022/07/18 04:37:40;;;;;;;13.02;9.07;;;15.30;99.90;;;;;;5043605;28;20140;-48
2022/07/18 04:40:08;;;;;;;13.60;8.25;;;15.40;99.90;;;;;;5041435;28;20041;-51
2022/07/18 04:42:33;;;;;;;;;;;15.50;99.90;;;;;;5042616;28;20556;-48
2022/07/18 04:44:59;;;;;;;11.30;8.32;;;15.80;99.90;;;;;;5040643;28;19924;-47
2022/07/18 04:47:26;;;;;;;15.50;8.10;;;16.30;99.90;;;;;;5040030;28;22790;-52
2022/07/18 04:49:52;;;;;;;11.38;8.40;;;16.80;99.90;;;;;;5023472;28;20095;-48
2022/07/18 04:52:17;;;;;;;9.57;8.30;;;17.30;99.90;;;;;;5043813;28;20049;-48
2022/07/18 04:54:43;;;;;;;10.77;8.48;;;17.70;99.90;;;;;;5026479;28;20132;-50
2022/07/18 04:57:11;;;;;;;9.93;7.68;;;18.10;99.90;;;;;;5037207;28;20042;-51
2022/07/18 04:59:37;;;;;;;12.82;7.65;;;18.80;99.90;;;;;;5018975;28;20499;-48
2022/07/18 05:02:02;;;;;;;10.27;7.43;;;18.70;99.90;;;;;;5039286;28;20131;-47
2022/07/18 05:04:28;;;;;;;14.52;7.72;;;18.60;99.90;;;;;;5042510;28;20132;-48
2022/07/18 05:06:54;;;;;;;9.02;6.53;;;18.50;99.90;;;;;;5043505;28;20102;-48
2022/07/18 05:09:19;;;;;;;8.68;6.97;;;18.60;99.90;;;;;;5042077;28;20045;-50
2022/07/18 05:11:45;;;;;;;10.65;7.20;;;19.20;99.90;;;;;;5038140;28;20037;-52
2022/07/18 05:14:10;;;;;;;13.10;7.53;;;20.10;99.90;;;;;;5039807;28;20044;-50
2022/07/18 05:16:36;;;;;;;8.90;7.00;;;20.90;99.90;;;;;;5021783;28;20557;-52
2022/07/18 05:19:02;;;;;;;9.38;6.07;;;21.90;99.90;;;;;;5025557;28;20044;-50
2022/07/18 05:21:27;;;;;;;9.52;6.47;;;22.40;99.90;;;;;;5040911;28;20482;-49
2022/07/18 05:23:53;;;;;;;8.07;5.97;;;22.40;99.90;;;;;;5043126;28;20087;-49
2022/07/18 05:26:19;;;;;;;9.68;6.68;;;21.80;99.70;;;;;;5038040;28;20045;-48
2022/07/18 05:28:44;;;;;;;7.88;6.13;;;21.30;98.80;;;;;;5042810;28;20045;-48
2022/07/18 05:31:11;;;;;;;6.55;5.85;;;21.10;99.90;;;;;;5036394;28;20421;-52
2022/07/18 05:33:36;;;;;;;6.78;5.55;;;21.10;99.90;;;;;;5042352;28;20045;-50
2022/07/18 05:36:05;;;;;;;7.13;5.82;;;21.60;99.90;;;;;;5022615;28;20045;-51
2022/07/18 05:38:31;;;;;;;8.68;5.53;;;21.80;99.90;;;;;;5043843;28;20037;-50
2022/07/18 05:40:57;;;;;;;7.18;5.63;;;21.30;99.90;;;;;;5040552;28;20052;-48
2022/07/18 05:43:22;;;;;;;9.82;5.50;;;20.90;99.90;;;;;;5039335;28;20041;-52
2022/07/18 05:45:48;;;;;;;7.10;5.43;;;20.60;99.90;;;;;;5022290;28;20048;-51
2022/07/18 05:48:13;;;;;;;7.22;5.40;;;20.40;99.90;;;;;;5037751;28;20379;-50
2022/07/18 05:50:39;;;;;;;7.90;5.45;;;20.40;99.90;;;;;;5022207;28;20045;-49
2022/07/18 05:53:05;;;;;;;7.22;5.28;;;20.70;99.90;;;;;;5024818;28;20458;-54
2022/07/18 05:55:31;;;;;;;8.30;5.63;;;21.30;99.90;;;;;;5040696;28;20040;-50
2022/07/18 05:57:56;;;;;;;6.72;5.10;;;22.10;99.90;;;;;;5038686;28;20044;-49
2022/07/18 06:00:22;;;;;;;8.90;4.95;;;22.90;99.50;;;;;;5017449;28;20499;-51
2022/07/18 06:02:48;;;;;;;6.63;4.90;;;23.00;97.40;;;;;;5040838;28;20491;-50
2022/07/18 06:05:14;;;;;;;9.57;5.15;;;23.40;97.90;;;;;;5040757;28;20041;-50
2022/07/18 06:07:40;;;;;;;10.45;4.95;;;24.20;98.10;;;;;;5041359;28;20110;-51
2022/07/18 06:10:06;;;;;;;8.88;4.70;;;24.00;96.20;;;;;;5043357;28;20067;-54
2022/07/18 06:12:32;;;;;;;8.27;4.53;;;23.60;96.00;;;;;;5028697;28;20062;-51
2022/07/18 06:14:58;;;;;;;6.45;4.40;;;23.50;95.70;;;;;;5042411;28;20439;-52
2022/07/18 06:17:24;;;;;;;12.63;4.73;;;23.00;96.70;;;;;;5041923;28;20064;-50
2022/07/18 06:19:50;;;;;;;7.95;4.10;;;22.90;96.10;;;;;;5042864;28;20696;-51
2022/07/18 06:22:16;;;;;;;7.07;4.20;;;22.30;96.60;;;;;;5044686;28;20041;-53
2022/07/18 06:24:41;;;;;;;6.55;4.10;;;22.10;97.20;;;;;;5042990;28;20487;-51
2022/07/18 06:27:07;;;;;;;7.60;3.90;;;22.10;97.40;;;;;;5045489;28;20040;-50
2022/07/18 06:29:33;;;;;;;6.60;3.63;;;21.90;98.50;;;;;;5028289;28;20040;-50
2022/07/18 06:31:58;;;;;;;6.40;4.05;;;22.00;98.60;;;;;;5046414;28;20057;-50
2022/07/18 06:34:24;;;;;;;6.28;3.80;;;22.10;98.40;;;;;;5040919;28;20483;-49
2022/07/18 06:36:49;;;;;;;5.75;3.40;;;22.40;98.50;;;;;;5041737;28;20083;-50
2022/07/18 06:39:18;;;;;;;10.23;3.67;;;22.30;97.60;;;;;;5045656;28;20033;-48
2022/07/18 06:41:44;;;;;;;7.13;3.38;;;22.40;97.70;;;;;;5024710;28;20096;-49
2022/07/18 06:44:10;;;;;;;5.95;3.28;;;22.70;97.20;;;;;;5042494;28;20450;-50
2022/07/18 06:46:36;;;;;;;5.82;3.05;;;22.90;97.30;;;;;;5041200;28;20045;-54
2022/07/18 06:49:03;;;;;;;4.03;3.33;;;22.70;97.10;;;;;;5042605;28;20055;-51
2022/07/18 06:51:29;;;;;;;5.43;3.13;;;22.80;97.60;;;;;;5041385;28;20049;-53
2022/07/18 06:53:55;;;;;;;5.82;3.22;;;22.80;97.10;;;;;;5043393;28;20072;-49
2022/07/18 06:56:20;;;;;;;3.85;2.80;;;22.90;96.70;;;;;;5025625;28;20073;-53
2022/07/18 06:58:48;;;;;;;6.63;2.88;;;23.00;96.90;;;;;;5042801;28;20033;-51
2022/07/18 07:01:15;;;;;;;4.07;2.85;;;23.20;96.70;;;;;;5039183;28;20398;-49
2022/07/18 07:03:41;;;;;;;5.15;2.63;;;23.40;97.20;;;;;;5044737;28;20041;-51
2022/07/18 07:06:06;;;;;;;4.38;2.45;;;23.80;96.30;;;;;;5038147;28;20138;-51
2022/07/18 07:08:32;;;;;;;5.20;2.72;;;24.40;96.10;;;;;;5042134;28;20037;-51
2022/07/18 07:10:57;;;;;;;5.75;2.40;;;25.00;95.10;;;;;;5046281;28;20122;-51
2022/07/18 07:13:23;;;;;;;5.00;2.67;;;25.70;94.60;;;;;;5040786;28;20041;-52
2022/07/18 07:15:49;;;;;;;2.78;2.20;;;26.40;94.30;;;;;;5043913;28;20041;-50
2022/07/18 07:18:14;;;;;;;3.20;2.20;;;26.60;93.60;;;;;;5019598;28;20190;-53
2022/07/18 07:20:40;;;;;;;2.95;1.80;;;26.60;91.60;;;;;;5040361;28;20409;-55
2022/07/18 07:23:07;;;;;;;4.72;2.10;;;26.70;91.20;;;;;;5044150;28;20376;-53
2022/07/18 07:25:34;;;;;;;5.72;2.22;;;27.10;90.40;;;;;;5045757;28;20053;-52
2022/07/18 07:28:00;;;;;;;5.45;2.00;;;28.00;89.40;;;;;;5020524;28;20088;-53
2022/07/18 07:30:25;;;;;;;4.38;1.85;;;28.40;89.10;;;;;;5035130;28;20124;-51
2022/07/18 07:32:51;;;;;;;3.22;1.83;;;28.60;84.90;;;;;;5040151;28;20046;-51
2022/07/18 07:35:19;;;;;;;2.78;1.75;;;28.60;85.20;;;;;;5037048;28;20123;-50
2022/07/18 07:37:50;;;;;;;4.38;2.00;;;28.40;82.70;;;;;;5006770;28;20049;-49
2022/07/18 07:40:17;;;;;;;2.22;1.50;;;28.50;82.00;;;;;;5043093;28;20048;-52
2022/07/18 07:42:43;;;;;;;3.97;1.60;;;28.90;81.80;;;;;;5045862;28;20052;-53
2022/07/18 07:45:09;;;;;;;3.65;1.42;;;28.80;77.90;;;;;;5049253;28;20482;-52
2022/07/18 07:47:36;;;;;;;6.10;1.70;;;29.10;80.50;;;;;;5051645;28;20124;-52
2022/07/18 07:50:02;;;;;;;5.78;1.50;;;28.70;78.40;;;;;;5051972;28;20033;-51
2022/07/18 07:52:28;;;;;;;3.72;1.65;;;28.50;79.10;;;;;;5050982;28;20063;-48
2022/07/18 07:54:54;;;;;;;4.22;1.60;;;28.20;79.00;;;;;;5053564;28;20084;-52
2022/07/18 07:57:20;;;;;;;3.30;1.58;;;27.80;77.10;;;;;;5050275;28;20052;-51
2022/07/18 07:59:46;;;;;;;4.20;1.25;;;27.70;78.00;;;;;;5050573;28;20041;-53
2022/07/18 08:02:13;;;;;;;5.68;1.40;;;27.70;78.80;;;;;;5033407;28;20118;-49
2022/07/18 08:04:38;;;;;;;3.90;1.20;;;27.80;79.70;;;;;;5052917;28;20114;-52
2022/07/18 08:07:04;;;;;;;3.10;1.42;;;27.70;78.00;;;;;;5050892;28;20049;-51
2022/07/18 08:09:30;;;;;;;2.88;1.50;;;27.40;75.90;;;;;;5051612;28;20029;-49
2022/07/18 08:11:55;;;;;;;3.10;1.50;;;27.50;78.20;;;;;;5052006;28;20127;-53
2022/07/18 08:14:21;;;;;;;3.80;1.70;;;27.50;76.60;;;;;;5048434;28;20140;-51
2022/07/18 08:16:47;;;;;;;3.53;1.83;;;27.40;77.60;;;;;;5050944;28;20131;-52
2022/07/18 08:19:12;;;;;;;2.70;1.60;;;27.40;77.30;;;;;;5050709;28;20037;-52
2022/07/18 08:21:38;;;;;;;4.55;1.67;;;27.70;76.50;;;;;;5026084;28;20043;-50
2022/07/18 08:24:04;;;;;;;3.08;1.63;;;27.70;76.10;;;;;;5038208;28;20037;-48
2022/07/18 08:26:30;;;;;;;4.60;2.20;;;27.70;74.50;;;;;;5032809;28;20408;-52
2022/07/18 08:28:55;;;;;;;5.35;2.15;;;27.50;74.10;;;;;;5043996;28;20033;-50
2022/07/18 08:31:21;;;;;;;6.00;1.73;;;27.70;76.30;;;;;;5049594;28;20048;-51
2022/07/18 08:33:47;;;;;;;3.42;2.00;;;27.80;77.60;;;;;;5046935;28;20049;-48
2022/07/18 08:36:13;;;;;;;6.70;2.30;;;27.80;75.40;;;;;;5040243;28;20073;-53
2022/07/18 08:38:39;;;;;;;3.30;2.05;;;28.00;74.70;;;;;;5042755;28;20095;-53
2022/07/18 08:41:05;;;;;;;4.80;2.05;;;27.90;74.60;;;;;;5020205;28;20048;-52
2022/07/18 08:43:31;;;;;;;4.95;2.53;;;28.00;73.70;;;;;;5038417;28;20045;-50
2022/07/18 08:46:02;;;;;;;5.78;2.25;;;28.10;73.60;;;;;;5017324;28;20083;-50
2022/07/18 08:48:28;;;;;;;4.93;2.28;;;28.40;75.10;;;;;;5034906;28;20051;-49
2022/07/18 08:50:54;;;;;;;5.97;2.20;;;28.50;72.80;;;;;;5036551;28;20041;-50
2022/07/18 08:53:20;;;;;;;3.35;2.10;;;28.50;73.80;;;;;;5034611;28;20051;-52
2022/07/18 08:55:53;;;;;;;4.47;2.10;;;28.80;73.80;;;;;;5083436;27;20622;-51
2022/07/18 08:58:19;;;;;;;3.92;1.90;;;28.60;73.60;;;;;;5086401;28;20197;-54
2022/07/18 09:00:45;;;;;;;3.83;1.95;;;28.60;74.60;;;;;;5089020;28;20498;-51
2022/07/18 09:03:11;;;;;;;6.03;1.95;;;28.80;72.40;;;;;;5097346;28;20039;-52
2022/07/18 09:05:37;;;;;;;5.53;1.80;;;28.70;72.60;;;;;;5081482;28;20055;-54
2022/07/18 09:08:17;;;;;;;7.90;2.30;;;28.70;70.50;;;;;;5085236;28;20063;-54
2022/07/18 09:10:54;;;;;;;3.80;1.98;;;28.70;71.90;;;;;;5084541;28;20111;-53
2022/07/18 09:13:22;;;;;;;;;;;28.50;72.90;;;;;;5097208;28;20101;-53
2022/07/18 09:16:07;;;;;;;4.70;2.25;;;28.40;71.50;;;;;;5087501;28;19920;-53
2022/07/18 09:18:38;;;;;;;3.97;2.10;;;28.50;72.30;;;;;;5081136;28;20104;-52
2022/07/18 09:21:13;;;;;;;6.70;2.05;;;28.70;72.10;;;;;;5085030;28;20043;-52
2022/07/18 09:23:41;;;;;;;5.05;1.98;;;28.90;70.90;;;;;;5093631;28;20044;-52
2022/07/18 09:26:08;;;;;;;5.32;2.00;;;28.90;70.10;;;;;;5087098;28;20054;-54
2022/07/18 09:28:46;;;;;;;;;;;29.10;71.30;;;;;;5081292;28;20085;-54
2022/07/18 09:31:21;;;;;;;3.60;1.60;;;29.40;71.00;;;;;;5083902;28;19982;-54
2022/07/18 09:33:58;;;;;;;3.58;1.58;;;29.40;71.50;;;;;;5086274;28;20040;-52
2022/07/18 09:36:24;;;;;;;5.03;1.70;;;29.60;69.70;;;;;;5083641;28;20051;-53
2022/07/18 09:38:50;;;;;;;6.63;1.60;;;29.80;70.90;;;;;;5081269;28;20478;-53
2022/07/18 09:41:16;;;;;;;3.37;1.90;;;30.00;69.70;;;;;;5088323;28;20601;-53
2022/07/18 09:43:42;;;;;;;2.55;1.40;;;30.10;69.40;;;;;;5086807;28;20315;-55
2022/07/18 09:46:09;;;;;;;5.40;1.92;;;30.20;68.30;;;;;;5064413;28;20067;-51
2022/07/18 09:48:34;;;;;;;2.97;1.50;;;30.30;66.60;;;;;;5088273;28;20072;-54
2022/07/18 09:51:02;;;;;;;4.70;2.20;;;30.50;69.50;;;;;;5090845;28;20147;-54
2022/07/18 09:53:30;;;;;;;;;;;30.50;65.40;;;;;;5087863;28;20036;-53
2022/07/18 09:55:58;;;;;;;3.42;1.33;;;30.30;66.20;;;;;;5095229;28;20300;-53
2022/07/18 09:58:26;;;;;;;2.95;1.83;;;30.40;66.30;;;;;;5088325;28;20083;-53
2022/07/18 10:00:53;;;;;;;5.32;1.70;;;30.50;64.80;;;;;;5092302;28;20043;-53
2022/07/18 10:03:20;;;;;;;3.50;1.70;;;30.60;67.50;;;;;;5087777;28;20036;-52
2022/07/18 10:05:47;;;;;;;6.65;2.17;;;30.40;64.20;;;;;;5086195;28;20044;-53
2022/07/18 10:08:14;;;;;;;;;;;30.50;63.80;;;;;;5079660;28;20068;-53
2022/07/18 10:10:42;;;;;;;3.75;1.67;;;30.60;66.10;;;;;;5081885;28;19920;-54
2022/07/18 10:13:08;;;;;;;5.07;1.65;;;30.70;64.60;;;;;;5080876;28;20808;-49
2022/07/18 10:15:37;;;;;;;3.90;1.50;;;30.80;64.50;;;;;;5078364;28;20043;-51
2022/07/18 10:18:04;;;;;;;4.07;1.70;;;31.00;62.90;;;;;;5078548;28;20043;-52
2022/07/18 10:20:36;;;;;;;3.75;1.70;;;30.90;62.30;;;;;;5082159;28;20044;-50
2022/07/18 10:23:09;;;;;;;3.75;1.75;;;31.00;63.10;;;;;;5082005;28;20580;-54
2022/07/18 10:25:36;;;;;;;5.28;1.90;;;30.80;62.50;;;;;;5075217;28;20044;-52
2022/07/18 10:28:04;;;;;;;3.08;1.80;;;30.90;61.50;;;;;;5069203;28;20043;-53
2022/07/18 10:30:33;;;;;;;4.53;2.03;;;30.80;62.60;;;;;;5079620;28;20032;-53
2022/07/18 10:33:00;;;;;;;6.07;2.03;;;30.90;61.00;;;;;;5076298;28;20097;-49
2022/07/18 10:35:57;;;;;;;5.78;1.80;;;30.90;62.70;;;;;;5081866;28;20043;-52
2022/07/18 10:38:22;;;;;;;4.18;2.13;;;30.90;63.70;;;;;;5082731;28;20640;-52
2022/07/18 10:41:06;;;;;;;4.63;2.13;;;31.00;63.20;;;;;;5071421;28;20127;-53
2022/07/18 10:43:35;;;;;;;4.55;1.75;;;31.00;62.30;;;;;;5070007;28;20703;-51
2022/07/18 10:46:03;;;;;;;5.40;2.00;;;31.10;60.40;;;;;;5070612;28;20143;-51
2022/07/18 10:48:37;;;;;;;4.45;1.90;;;31.10;62.00;;;;;;5068215;28;20177;-50
2022/07/18 10:51:10;;;;;;;3.60;1.75;;;31.20;60.90;;;;;;5072187;28;20525;-51
2022/07/18 10:53:54;;;;;;;4.38;1.83;;;31.30;60.60;;;;;;5078585;28;20090;-48
2022/07/18 10:56:40;;;;;;;2.33;1.58;;;31.30;59.60;;;;;;5075842;28;20084;-51
2022/07/18 10:59:14;;;;;;;4.22;2.17;;;31.50;61.20;;;;;;5077824;28;20056;-52
2022/07/18 11:01:55;;;;;;;6.28;2.42;;;31.50;59.30;;;;;;5074815;28;20114;-52
2022/07/18 11:04:36;;;;;;;5.55;2.72;;;31.50;58.00;;;;;;5076013;28;20075;-53
2022/07/18 11:07:14;;;;;;;3.75;2.28;;;31.60;57.80;;;;;;5053772;28;20089;-50
2022/07/18 11:09:41;;;;;;;5.68;2.67;;;31.70;60.40;;;;;;5080767;28;20409;-50
2022/07/18 11:12:24;;;;;;;;;;;31.50;59.60;;;;;;5090692;28;20044;-52
2022/07/18 11:15:13;;;;;;;4.05;2.10;;;31.30;59.80;;;;;;5080578;28;20295;-52
2022/07/18 11:17:54;;;;;;;3.35;2.17;;;31.20;59.90;;;;;;5081656;28;20066;-52
2022/07/18 11:20:24;;;;;;;4.10;2.42;;;31.50;69.60;;;;;;5081000;28;20044;-53
2022/07/18 11:22:50;;;;;;;5.13;2.65;;;31.50;67.80;;;;;;5075797;28;20443;-50
2022/07/18 11:25:17;;;;;;;3.17;2.17;;;31.60;57.80;;;;;;5081405;28;20044;-52
2022/07/18 11:27:44;;;;;;;4.43;2.20;;;31.40;58.40;;;;;;5077678;28;20369;-51
2022/07/18 11:30:10;;;;;;;5.13;2.25;;;31.40;59.40;;;;;;5069114;28;20036;-53
2022/07/18 11:32:36;;;;;;;7.40;2.42;;;31.70;60.00;;;;;;5078459;28;20046;-53
2022/07/18 11:35:05;;;;;;;2.77;2.40;;;31.60;60.90;;;;;;5073644;28;20083;-52
2022/07/18 11:37:31;;;;;;;4.72;2.40;;;31.40;58.20;;;;;;5073487;28;20048;-52
2022/07/18 11:40:07;;;;;;;5.93;2.83;;;31.60;59.00;;;;;;5073178;28;21384;-51
2022/07/18 11:42:38;;;;;;;3.80;2.20;;;31.50;58.50;;;;;;5074289;28;20036;-52
2022/07/18 11:45:05;;;;;;;5.68;2.35;;;31.50;58.80;;;;;;5077180;28;20067;-53
2022/07/18 11:47:31;;;;;;;5.93;2.60;;;31.60;57.40;;;;;;5072797;28;20094;-50
2022/07/18 11:49:57;;;;;;;8.20;2.50;;;31.60;56.80;;;;;;5075354;28;20040;-53
2022/07/18 11:52:23;;;;;;;3.58;2.42;;;31.50;56.50;;;;;;5071742;28;20056;-53
2022/07/18 11:54:49;;;;;;;5.37;2.40;;;31.70;57.30;;;;;;5088983;28;20055;-53
2022/07/18 11:57:27;;;;;;;2.63;2.22;;;31.90;60.30;;;;;;5088921;28;20078;-53
2022/07/18 11:59:53;;;;;;;5.93;2.60;;;31.80;57.40;;;;;;5071553;28;20050;-52
2022/07/18 12:02:18;;;;;;;3.80;2.37;;;31.80;58.80;;;;;;5071448;28;20045;-52
2022/07/18 12:04:44;;;;;;;4.77;2.37;;;31.70;59.10;;;;;;5080498;28;20123;-53
2022/07/18 12:07:18;;;;;;;4.87;2.17;;;31.70;58.50;;;;;;5073140;28;20044;-53
2022/07/18 12:09:44;;;;;;;4.20;2.25;;;31.90;57.50;;;;;;5087596;28;20101;-53
2022/07/18 12:12:12;;;;;;;5.70;2.42;;;32.00;56.20;;;;;;5090175;28;20067;-54
2022/07/18 12:14:38;;;;;;;3.70;2.08;;;32.30;58.90;;;;;;5084806;28;20165;-53
2022/07/18 12:17:04;;;;;;;3.63;2.03;;;32.50;57.00;;;;;;5076130;28;20452;-49
2022/07/18 12:19:35;;;;;;;4.40;2.60;;;32.90;58.00;;;;;;5070989;28;20383;-52
2022/07/18 12:22:03;;;;;;;5.90;2.10;;;33.10;57.50;;;;;;5085853;28;20387;-51
2022/07/18 12:24:38;;;;;;;3.72;2.30;;;33.20;56.70;;;;;;5076917;28;20560;-50
2022/07/18 12:27:13;;;;;;;3.47;2.30;;;33.70;57.40;;;;;;5078480;28;20052;-52
2022/07/18 12:30:03;;;;;;;2.90;1.88;;;33.60;54.00;;;;;;5075061;28;20049;-53
2022/07/18 12:32:40;;;;;;;2.85;2.05;;;33.60;52.60;;;;;;5086166;28;20406;-53
2022/07/18 12:35:08;;;;;;;5.05;1.80;;;33.80;53.90;;;;;;5071407;28;20037;-51
2022/07/18 12:37:34;;;;;;;5.38;2.05;;;34.00;53.90;;;;;;5071887;28;20133;-52
2022/07/18 12:40:03;;;;;;;2.83;2.10;;;34.00;55.00;;;;;;5090297;28;20044;-53
2022/07/18 12:42:31;;;;;;;3.92;1.98;;;34.00;53.20;;;;;;5091801;28;20055;-52
2022/07/18 12:44:57;;;;;;;4.68;2.30;;;34.20;52.70;;;;;;5091887;28;20059;-52
2022/07/18 12:47:23;;;;;;;4.32;2.30;;;34.20;52.10;;;;;;5081696;28;20041;-52
2022/07/18 12:49:49;;;;;;;3.57;2.10;;;34.30;52.90;;;;;;5072286;28;20386;-53